sensor_id;sensor_type;location;lat;lon;timestamp;temperature;humidity
15749;DHT22;7976;52.526;13.326;2024-02-26T00:00:37;6.70;99.90
15749;DHT22;7976;52.526;13.326;2024-02-26T00:03:05;6.70;99.90
15749;DHT22;7976;52.526;13.326;2024-02-26T00:05:32;6.70;99.90
15749;DHT22;7976;52.526;13.326;2024-02-26T00:07:59;6.70;99.90
15749;DHT22;7976;52.526;13.326;2024-02-26T00:10:26;6.60;99.90
15749;DHT22;7976;52.526;13.326;2024-02-26T00:12:53;6.60;99.90
15749;DHT22;7976;52.526;13.326;2024-02-26T00:15:20;6.60;99.90
15749;DHT22;7976;52.526;13.326;2024-02-26T00:17:47;6.60;99.90
15749;DHT22;7976;52.526;13.326;2024-02-26T00:20:15;6.60;99.90
15749;DHT22;7976;52.526;13.326;2024-02-26T00:22:42;6.50;99.90
15749;DHT22;7976;52.526;13.326;2024-02-26T00:25:08;6.50;99.90
15749;DHT22;7976;52.526;13.326;2024-02-26T00:27:38;6.50;99.90
15749;DHT22;7976;52.526;13.326;2024-02-26T00:30:07;6.50;99.90
15749;DHT22;7976;52.526;13.326;2024-02-26T00:32:34;6.50;99.90
15749;DHT22;7976;52.526;13.326;2024-02-26T00:35:01;6.40;99.90
15749;DHT22;7976;52.526;13.326;2024-02-26T00:37:29;6.40;99.90
15749;DHT22;7976;52.526;13.326;2024-02-26T00:39:56;6.30;99.90
15749;DHT22;7976;52.526;13.326;2024-02-26T00:42:22;6.30;99.90
15749;DHT22;7976;52.526;13.326;2024-02-26T00:44:49;6.30;99.90
15749;DHT22;7976;52.526;13.326;2024-02-26T00:47:16;6.30;99.90
15749;DHT22;7976;52.526;13.326;2024-02-26T00:49:43;6.40;99.90
15749;DHT22;7976;52.526;13.326;2024-02-26T00:52:10;6.40;99.90
15749;DHT22;7976;52.526;13.326;2024-02-26T00:54:38;6.40;99.90
15749;DHT22;7976;52.526;13.326;2024-02-26T00:57:05;6.40;99.90
15749;DHT22;7976;52.526;13.326;2024-02-26T00:59:32;6.30;99.90
15749;DHT22;7976;52.526;13.326;2024-02-26T01:01:58;6.30;99.90
15749;DHT22;7976;52.526;13.326;2024-02-26T01:04:27;6.30;99.90
15749;DHT22;7976;52.526;13.326;2024-02-26T01:06:54;6.30;99.90
15749;DHT22;7976;52.526;13.326;2024-02-26T01:09:21;6.30;99.90
15749;DHT22;7976;52.526;13.326;2024-02-26T01:11:49;6.30;99.90
15749;DHT22;7976;52.526;13.326;2024-02-26T01:14:16;6.30;99.90
15749;DHT22;7976;52.526;13.326;2024-02-26T01:16:42;6.30;99.90
15749;DHT22;7976;52.526;13.326;2024-02-26T01:19:09;6.30;99.90
15749;DHT22;7976;52.526;13.326;2024-02-26T01:21:36;6.20;99.90
15749;DHT22;7976;52.526;13.326;2024-02-26T01:24:03;6.20;99.90
15749;DHT22;7976;52.526;13.326;2024-02-26T01:26:30;6.20;99.90
15749;DHT22;7976;52.526;13.326;2024-02-26T01:28:59;6.20;99.90
15749;DHT22;7976;52.526;13.326;2024-02-26T01:31:26;6.20;99.90
15749;DHT22;7976;52.526;13.326;2024-02-26T01:33:52;6.20;99.90
15749;DHT22;7976;52.526;13.326;2024-02-26T01:36:19;6.20;99.90
15749;DHT22;7976;52.526;13.326;2024-02-26T01:38:46;6.20;99.90
15749;DHT22;7976;52.526;13.326;2024-02-26T01:41:13;6.10;99.90
15749;DHT22;7976;52.526;13.326;2024-02-26T01:43:40;6.20;99.90
15749;DHT22;7976;52.526;13.326;2024-02-26T01:46:11;6.10;99.90
15749;DHT22;7976;52.526;13.326;2024-02-26T01:48:41;6.10;99.90
15749;DHT22;7976;52.526;13.326;2024-02-26T01:51:08;6.10;99.90
15749;DHT22;7976;52.526;13.326;2024-02-26T01:53:36;6.10;99.90
15749;DHT22;7976;52.526;13.326;2024-02-26T01:56:04;6.00;99.90
15749;DHT22;7976;52.526;13.326;2024-02-26T01:58:31;6.00;99.90
15749;DHT22;7976;52.526;13.326;2024-02-26T02:01:01;5.90;99.90
15749;DHT22;7976;52.526;13.326;2024-02-26T02:03:30;5.90;99.90
15749;DHT22;7976;52.526;13.326;2024-02-26T02:05:57;5.90;99.90
15749;DHT22;7976;52.526;13.326;2024-02-26T02:08:25;5.90;99.90
15749;DHT22;7976;52.526;13.326;2024-02-26T02:10:52;5.80;99.90
15749;DHT22;7976;52.526;13.326;2024-02-26T02:13:19;5.80;99.90
15749;DHT22;7976;52.526;13.326;2024-02-26T02:15:46;5.80;99.90
15749;DHT22;7976;52.526;13.326;2024-02-26T02:18:13;5.80;99.90
15749;DHT22;7976;52.526;13.326;2024-02-26T02:20:41;5.70;99.90
15749;DHT22;7976;52.526;13.326;2024-02-26T02:23:08;5.70;99.90
15749;DHT22;7976;52.526;13.326;2024-02-26T02:25:35;5.80;99.90
15749;DHT22;7976;52.526;13.326;2024-02-26T02:28:02;5.80;99.90
15749;DHT22;7976;52.526;13.326;2024-02-26T02:30:29;5.80;99.90
15749;DHT22;7976;52.526;13.326;2024-02-26T02:32:58;5.80;99.90
15749;DHT22;7976;52.526;13.326;2024-02-26T02:35:25;5.80;99.90
15749;DHT22;7976;52.526;13.326;2024-02-26T02:37:55;5.80;99.90
15749;DHT22;7976;52.526;13.326;2024-02-26T02:40:23;5.80;99.90
15749;DHT22;7976;52.526;13.326;2024-02-26T02:42:50;5.80;99.90
15749;DHT22;7976;52.526;13.326;2024-02-26T02:45:17;5.70;99.90
15749;DHT22;7976;52.526;13.326;2024-02-26T02:47:43;5.70;99.90
15749;DHT22;7976;52.526;13.326;2024-02-26T02:50:10;5.70;99.90
15749;DHT22;7976;52.526;13.326;2024-02-26T02:52:37;5.70;99.90
15749;DHT22;7976;52.526;13.326;2024-02-26T02:55:06;5.70;99.90
15749;DHT22;7976;52.526;13.326;2024-02-26T02:57:33;5.80;99.90
15749;DHT22;7976;52.526;13.326;2024-02-26T03:00:07;5.70;99.90
15749;DHT22;7976;52.526;13.326;2024-02-26T03:02:34;5.70;99.90
15749;DHT22;7976;52.526;13.326;2024-02-26T03:05:02;5.70;99.90
15749;DHT22;7976;52.526;13.326;2024-02-26T03:07:29;5.70;99.90
15749;DHT22;7976;52.526;13.326;2024-02-26T03:09:56;5.70;99.90
15749;DHT22;7976;52.526;13.326;2024-02-26T03:12:24;5.70;99.90
15749;DHT22;7976;52.526;13.326;2024-02-26T03:14:51;5.60;99.90
15749;DHT22;7976;52.526;13.326;2024-02-26T03:17:19;5.60;99.90
15749;DHT22;7976;52.526;13.326;2024-02-26T03:19:46;5.60;99.90
15749;DHT22;7976;52.526;13.326;2024-02-26T03:22:18;5.60;99.90
15749;DHT22;7976;52.526;13.326;2024-02-26T03:24:45;5.50;99.90
15749;DHT22;7976;52.526;13.326;2024-02-26T03:27:12;5.50;99.90
15749;DHT22;7976;52.526;13.326;2024-02-26T03:29:41;5.50;99.90
15749;DHT22;7976;52.526;13.326;2024-02-26T03:32:08;5.40;99.90
15749;DHT22;7976;52.526;13.326;2024-02-26T03:34:34;5.40;99.90
15749;DHT22;7976;52.526;13.326;2024-02-26T03:37:01;5.40;99.90
15749;DHT22;7976;52.526;13.326;2024-02-26T03:39:28;5.40;99.90
15749;DHT22;7976;52.526;13.326;2024-02-26T03:41:55;5.40;99.90
15749;DHT22;7976;52.526;13.326;2024-02-26T03:44:22;5.40;99.90
15749;DHT22;7976;52.526;13.326;2024-02-26T03:46:50;5.30;99.90
15749;DHT22;7976;52.526;13.326;2024-02-26T03:49:17;5.40;99.90
15749;DHT22;7976;52.526;13.326;2024-02-26T03:51:43;5.40;99.90
15749;DHT22;7976;52.526;13.326;2024-02-26T03:54:10;5.40;99.90
15749;DHT22;7976;52.526;13.326;2024-02-26T03:56:37;5.40;99.90
15749;DHT22;7976;52.526;13.326;2024-02-26T03:59:04;5.30;99.90
15749;DHT22;7976;52.526;13.326;2024-02-26T04:01:31;5.30;99.90
15749;DHT22;7976;52.526;13.326;2024-02-26T04:03:59;5.30;99.90
15749;DHT22;7976;52.526;13.326;2024-02-26T04:06:27;5.30;99.90
15749;DHT22;7976;52.526;13.326;2024-02-26T04:08:53;5.30;99.90
15749;DHT22;7976;52.526;13.326;2024-02-26T04:11:20;5.30;99.90
15749;DHT22;7976;52.526;13.326;2024-02-26T04:13:47;5.30;99.90
15749;DHT22;7976;52.526;13.326;2024-02-26T04:16:17;5.30;99.90
15749;DHT22;7976;52.526;13.326;2024-02-26T04:18:44;5.30;99.90
15749;DHT22;7976;52.526;13.326;2024-02-26T04:21:12;5.30;99.90
15749;DHT22;7976;52.526;13.326;2024-02-26T04:23:39;5.30;99.90
15749;DHT22;7976;52.526;13.326;2024-02-26T04:26:06;5.30;99.90
15749;DHT22;7976;52.526;13.326;2024-02-26T04:28:33;5.30;99.90
15749;DHT22;7976;52.526;13.326;2024-02-26T04:31:00;5.30;99.90
15749;DHT22;7976;52.526;13.326;2024-02-26T04:33:27;5.30;99.90
15749;DHT22;7976;52.526;13.326;2024-02-26T04:35:54;5.30;99.90
15749;DHT22;7976;52.526;13.326;2024-02-26T04:38:23;5.30;99.90
15749;DHT22;7976;52.526;13.326;2024-02-26T04:40:50;5.30;99.90
15749;DHT22;7976;52.526;13.326;2024-02-26T04:43:17;5.30;99.90
15749;DHT22;7976;52.526;13.326;2024-02-26T04:45:44;5.30;99.90
15749;DHT22;7976;52.526;13.326;2024-02-26T04:48:12;5.30;99.90
15749;DHT22;7976;52.526;13.326;2024-02-26T04:50:39;5.30;99.90
15749;DHT22;7976;52.526;13.326;2024-02-26T04:53:06;5.30;99.90
15749;DHT22;7976;52.526;13.326;2024-02-26T04:55:35;5.20;99.90
15749;DHT22;7976;52.526;13.326;2024-02-26T04:58:02;5.20;99.90
15749;DHT22;7976;52.526;13.326;2024-02-26T05:00:29;5.20;99.90
15749;DHT22;7976;52.526;13.326;2024-02-26T05:02:56;5.10;99.90
15749;DHT22;7976;52.526;13.326;2024-02-26T05:05:23;5.10;99.90
15749;DHT22;7976;52.526;13.326;2024-02-26T05:07:50;5.10;99.90
15749;DHT22;7976;52.526;13.326;2024-02-26T05:10:17;5.10;99.90
15749;DHT22;7976;52.526;13.326;2024-02-26T05:12:45;5.10;99.90
15749;DHT22;7976;52.526;13.326;2024-02-26T05:15:12;5.20;99.90
15749;DHT22;7976;52.526;13.326;2024-02-26T05:17:43;5.10;99.90
15749;DHT22;7976;52.526;13.326;2024-02-26T05:20:11;5.20;99.90
15749;DHT22;7976;52.526;13.326;2024-02-26T05:22:38;5.10;99.90
15749;DHT22;7976;52.526;13.326;2024-02-26T05:25:05;5.20;99.90
15749;DHT22;7976;52.526;13.326;2024-02-26T05:27:33;5.10;99.90
15749;DHT22;7976;52.526;13.326;2024-02-26T05:30:01;5.10;99.90
15749;DHT22;7976;52.526;13.326;2024-02-26T05:32:29;5.10;99.90
15749;DHT22;7976;52.526;13.326;2024-02-26T05:34:56;5.00;99.90
15749;DHT22;7976;52.526;13.326;2024-02-26T05:37:23;4.90;99.90
15749;DHT22;7976;52.526;13.326;2024-02-26T05:39:50;4.90;99.90
15749;DHT22;7976;52.526;13.326;2024-02-26T05:42:17;4.90;99.90
15749;DHT22;7976;52.526;13.326;2024-02-26T05:44:45;4.90;99.90
15749;DHT22;7976;52.526;13.326;2024-02-26T05:47:14;4.90;99.90
15749;DHT22;7976;52.526;13.326;2024-02-26T05:49:41;4.90;99.90
15749;DHT22;7976;52.526;13.326;2024-02-26T05:52:08;4.90;99.90
15749;DHT22;7976;52.526;13.326;2024-02-26T05:54:35;4.90;99.90
15749;DHT22;7976;52.526;13.326;2024-02-26T05:57:02;4.80;99.90
15749;DHT22;7976;52.526;13.326;2024-02-26T05:59:29;4.80;99.90
15749;DHT22;7976;52.526;13.326;2024-02-26T06:01:57;4.80;99.90
15749;DHT22;7976;52.526;13.326;2024-02-26T06:04:25;4.80;99.90
15749;DHT22;7976;52.526;13.326;2024-02-26T06:06:52;4.80;99.90
15749;DHT22;7976;52.526;13.326;2024-02-26T06:09:19;4.80;99.90
15749;DHT22;7976;52.526;13.326;2024-02-26T06:11:47;4.80;99.90
15749;DHT22;7976;52.526;13.326;2024-02-26T06:14:14;4.80;99.90
15749;DHT22;7976;52.526;13.326;2024-02-26T06:16:43;4.80;99.90
15749;DHT22;7976;52.526;13.326;2024-02-26T06:19:10;4.80;99.90
15749;DHT22;7976;52.526;13.326;2024-02-26T06:21:38;4.80;99.90
15749;DHT22;7976;52.526;13.326;2024-02-26T06:24:05;4.80;99.90
15749;DHT22;7976;52.526;13.326;2024-02-26T06:26:32;4.80;99.90
15749;DHT22;7976;52.526;13.326;2024-02-26T06:28:59;4.80;99.90
15749;DHT22;7976;52.526;13.326;2024-02-26T06:31:26;4.90;99.90
15749;DHT22;7976;52.526;13.326;2024-02-26T06:33:54;4.90;99.90
15749;DHT22;7976;52.526;13.326;2024-02-26T06:36:22;4.90;99.90
15749;DHT22;7976;52.526;13.326;2024-02-26T06:38:50;4.90;99.90
15749;DHT22;7976;52.526;13.326;2024-02-26T06:41:19;5.00;99.90
15749;DHT22;7976;52.526;13.326;2024-02-26T06:43:46;5.00;99.90
15749;DHT22;7976;52.526;13.326;2024-02-26T06:46:13;5.00;99.90
15749;DHT22;7976;52.526;13.326;2024-02-26T06:48:41;5.10;99.90
15749;DHT22;7976;52.526;13.326;2024-02-26T06:51:07;5.10;99.90
15749;DHT22;7976;52.526;13.326;2024-02-26T06:53:34;5.10;99.90
15749;DHT22;7976;52.526;13.326;2024-02-26T06:56:03;5.20;99.90
15749;DHT22;7976;52.526;13.326;2024-02-26T06:58:31;5.30;99.90
15749;DHT22;7976;52.526;13.326;2024-02-26T07:00:58;5.30;99.90
15749;DHT22;7976;52.526;13.326;2024-02-26T07:03:25;5.40;99.90
15749;DHT22;7976;52.526;13.326;2024-02-26T07:05:52;5.40;99.90
15749;DHT22;7976;52.526;13.326;2024-02-26T07:08:19;5.40;99.90
15749;DHT22;7976;52.526;13.326;2024-02-26T07:10:46;5.40;99.90
15749;DHT22;7976;52.526;13.326;2024-02-26T07:13:15;5.40;99.90
15749;DHT22;7976;52.526;13.326;2024-02-26T07:15:42;5.40;99.90
15749;DHT22;7976;52.526;13.326;2024-02-26T07:18:10;5.50;99.90
15749;DHT22;7976;52.526;13.326;2024-02-26T07:20:37;5.50;99.90
15749;DHT22;7976;52.526;13.326;2024-02-26T07:23:04;5.50;99.90
15749;DHT22;7976;52.526;13.326;2024-02-26T07:25:32;5.60;99.90
15749;DHT22;7976;52.526;13.326;2024-02-26T07:27:59;5.60;99.90
15749;DHT22;7976;52.526;13.326;2024-02-26T07:30:27;5.70;99.90
15749;DHT22;7976;52.526;13.326;2024-02-26T07:32:54;5.70;99.90
15749;DHT22;7976;52.526;13.326;2024-02-26T07:35:22;5.80;99.90
15749;DHT22;7976;52.526;13.326;2024-02-26T07:37:49;5.90;99.90
15749;DHT22;7976;52.526;13.326;2024-02-26T07:40:16;5.90;99.90
15749;DHT22;7976;52.526;13.326;2024-02-26T07:42:44;5.90;99.90
15749;DHT22;7976;52.526;13.326;2024-02-26T07:45:11;6.00;99.90
15749;DHT22;7976;52.526;13.326;2024-02-26T07:47:39;6.10;99.90
15749;DHT22;7976;52.526;13.326;2024-02-26T07:50:07;6.10;99.90
15749;DHT22;7976;52.526;13.326;2024-02-26T07:52:34;6.20;99.90
15749;DHT22;7976;52.526;13.326;2024-02-26T07:55:01;6.30;99.90
15749;DHT22;7976;52.526;13.326;2024-02-26T07:57:29;6.40;99.90
15749;DHT22;7976;52.526;13.326;2024-02-26T07:59:55;6.50;99.90
15749;DHT22;7976;52.526;13.326;2024-02-26T08:02:22;6.50;99.90
15749;DHT22;7976;52.526;13.326;2024-02-26T08:04:51;6.60;99.90
15749;DHT22;7976;52.526;13.326;2024-02-26T08:07:18;6.70;99.90
15749;DHT22;7976;52.526;13.326;2024-02-26T08:09:45;6.70;99.90
15749;DHT22;7976;52.526;13.326;2024-02-26T08:12:12;6.80;99.90
15749;DHT22;7976;52.526;13.326;2024-02-26T08:14:39;6.90;99.90
15749;DHT22;7976;52.526;13.326;2024-02-26T08:17:08;7.00;99.90
15749;DHT22;7976;52.526;13.326;2024-02-26T08:19:35;7.00;99.90
15749;DHT22;7976;52.526;13.326;2024-02-26T08:22:03;7.10;99.90
15749;DHT22;7976;52.526;13.326;2024-02-26T08:24:30;7.10;99.90
15749;DHT22;7976;52.526;13.326;2024-02-26T08:26:57;7.10;99.90
15749;DHT22;7976;52.526;13.326;2024-02-26T08:29:24;7.20;99.90
15749;DHT22;7976;52.526;13.326;2024-02-26T08:31:51;7.30;99.90
15749;DHT22;7976;52.526;13.326;2024-02-26T08:34:18;7.30;99.90
15749;DHT22;7976;52.526;13.326;2024-02-26T08:36:45;7.40;99.90
15749;DHT22;7976;52.526;13.326;2024-02-26T08:39:13;7.50;99.90
15749;DHT22;7976;52.526;13.326;2024-02-26T08:41:40;7.60;99.90
15749;DHT22;7976;52.526;13.326;2024-02-26T08:44:07;7.70;99.90
15749;DHT22;7976;52.526;13.326;2024-02-26T08:46:34;7.80;99.90
15749;DHT22;7976;52.526;13.326;2024-02-26T08:49:01;7.90;99.90
15749;DHT22;7976;52.526;13.326;2024-02-26T08:51:28;7.90;99.90
15749;DHT22;7976;52.526;13.326;2024-02-26T08:53:54;8.00;99.90
15749;DHT22;7976;52.526;13.326;2024-02-26T08:56:22;8.10;99.90
15749;DHT22;7976;52.526;13.326;2024-02-26T08:58:49;8.20;99.90
15749;DHT22;7976;52.526;13.326;2024-02-26T09:01:19;8.30;99.90
15749;DHT22;7976;52.526;13.326;2024-02-26T09:03:46;8.30;99.90
15749;DHT22;7976;52.526;13.326;2024-02-26T09:06:16;8.50;99.90
15749;DHT22;7976;52.526;13.326;2024-02-26T09:08:44;8.60;99.90
15749;DHT22;7976;52.526;13.326;2024-02-26T09:11:11;8.60;99.90
15749;DHT22;7976;52.526;13.326;2024-02-26T09:13:39;8.60;99.90
15749;DHT22;7976;52.526;13.326;2024-02-26T09:16:06;8.70;99.90
15749;DHT22;7976;52.526;13.326;2024-02-26T09:18:34;8.60;99.90
15749;DHT22;7976;52.526;13.326;2024-02-26T09:21:06;8.70;99.90
15749;DHT22;7976;52.526;13.326;2024-02-26T09:23:33;8.70;99.90
15749;DHT22;7976;52.526;13.326;2024-02-26T09:26:00;8.80;99.90
15749;DHT22;7976;52.526;13.326;2024-02-26T09:28:28;8.80;99.90
15749;DHT22;7976;52.526;13.326;2024-02-26T09:30:58;8.80;99.90
15749;DHT22;7976;52.526;13.326;2024-02-26T09:33:26;8.80;99.90
15749;DHT22;7976;52.526;13.326;2024-02-26T09:35:52;8.80;99.90
15749;DHT22;7976;52.526;13.326;2024-02-26T09:38:20;8.80;99.90
15749;DHT22;7976;52.526;13.326;2024-02-26T09:40:48;8.80;99.90
15749;DHT22;7976;52.526;13.326;2024-02-26T09:43:17;8.80;99.90
15749;DHT22;7976;52.526;13.326;2024-02-26T09:45:50;8.90;99.90
15749;DHT22;7976;52.526;13.326;2024-02-26T09:48:19;8.90;99.90
15749;DHT22;7976;52.526;13.326;2024-02-26T09:50:46;9.00;99.90
15749;DHT22;7976;52.526;13.326;2024-02-26T09:53:17;9.00;99.90
15749;DHT22;7976;52.526;13.326;2024-02-26T09:55:47;9.00;99.90
15749;DHT22;7976;52.526;13.326;2024-02-26T09:58:14;9.00;99.90
15749;DHT22;7976;52.526;13.326;2024-02-26T10:00:49;9.10;99.90
15749;DHT22;7976;52.526;13.326;2024-02-26T10:03:25;9.20;99.90
15749;DHT22;7976;52.526;13.326;2024-02-26T10:05:54;9.30;99.90
15749;DHT22;7976;52.526;13.326;2024-02-26T10:08:23;9.40;99.90
15749;DHT22;7976;52.526;13.326;2024-02-26T10:10:53;9.50;99.90
15749;DHT22;7976;52.526;13.326;2024-02-26T10:13:21;9.60;99.90
15749;DHT22;7976;52.526;13.326;2024-02-26T10:15:48;9.70;99.90
15749;DHT22;7976;52.526;13.326;2024-02-26T10:18:16;9.80;99.90
15749;DHT22;7976;52.526;13.326;2024-02-26T10:20:59;9.90;99.90
15749;DHT22;7976;52.526;13.326;2024-02-26T10:23:26;10.00;99.90
15749;DHT22;7976;52.526;13.326;2024-02-26T10:25:54;10.00;99.90
15749;DHT22;7976;52.526;13.326;2024-02-26T10:28:21;10.10;99.90
15749;DHT22;7976;52.526;13.326;2024-02-26T10:30:49;10.20;99.90
15749;DHT22;7976;52.526;13.326;2024-02-26T10:33:18;10.20;99.90
15749;DHT22;7976;52.526;13.326;2024-02-26T10:35:47;10.30;99.90
15749;DHT22;7976;52.526;13.326;2024-02-26T10:38:14;10.40;99.90
15749;DHT22;7976;52.526;13.326;2024-02-26T10:40:45;10.50;99.90
15749;DHT22;7976;52.526;13.326;2024-02-26T10:43:13;10.60;99.90
15749;DHT22;7976;52.526;13.326;2024-02-26T10:45:43;10.60;99.90
15749;DHT22;7976;52.526;13.326;2024-02-26T10:48:12;10.80;99.90
15749;DHT22;7976;52.526;13.326;2024-02-26T10:50:40;10.80;99.90
15749;DHT22;7976;52.526;13.326;2024-02-26T10:53:13;10.70;99.90
15749;DHT22;7976;52.526;13.326;2024-02-26T10:55:46;10.80;99.90
15749;DHT22;7976;52.526;13.326;2024-02-26T10:58:16;10.80;99.90
15749;DHT22;7976;52.526;13.326;2024-02-26T11:00:43;10.80;99.90
15749;DHT22;7976;52.526;13.326;2024-02-26T11:03:15;10.80;99.90
15749;DHT22;7976;52.526;13.326;2024-02-26T11:05:47;10.80;99.90
15749;DHT22;7976;52.526;13.326;2024-02-26T11:08:18;10.90;99.90
15749;DHT22;7976;52.526;13.326;2024-02-26T11:10:48;10.90;99.90
15749;DHT22;7976;52.526;13.326;2024-02-26T11:13:18;11.00;99.90
15749;DHT22;7976;52.526;13.326;2024-02-26T11:15:47;11.00;99.90
15749;DHT22;7976;52.526;13.326;2024-02-26T11:18:15;11.00;99.90
15749;DHT22;7976;52.526;13.326;2024-02-26T11:20:43;11.00;99.90
15749;DHT22;7976;52.526;13.326;2024-02-26T11:23:12;11.10;99.90
15749;DHT22;7976;52.526;13.326;2024-02-26T11:25:40;11.20;99.90
15749;DHT22;7976;52.526;13.326;2024-02-26T11:28:10;11.20;99.90
15749;DHT22;7976;52.526;13.326;2024-02-26T11:30:42;11.30;99.90
15749;DHT22;7976;52.526;13.326;2024-02-26T11:33:12;11.30;99.90
15749;DHT22;7976;52.526;13.326;2024-02-26T11:35:41;11.30;99.90
15749;DHT22;7976;52.526;13.326;2024-02-26T11:38:08;11.30;99.90
15749;DHT22;7976;52.526;13.326;2024-02-26T11:40:47;11.30;99.90
15749;DHT22;7976;52.526;13.326;2024-02-26T11:43:15;11.30;99.90
15749;DHT22;7976;52.526;13.326;2024-02-26T11:45:49;11.40;99.90
15749;DHT22;7976;52.526;13.326;2024-02-26T11:48:22;11.40;99.90
15749;DHT22;7976;52.526;13.326;2024-02-26T11:50:52;11.50;99.90
15749;DHT22;7976;52.526;13.326;2024-02-26T11:53:21;11.50;99.90
15749;DHT22;7976;52.526;13.326;2024-02-26T11:56:24;11.60;99.90
15749;DHT22;7976;52.526;13.326;2024-02-26T11:59:04;11.60;99.90
15749;DHT22;7976;52.526;13.326;2024-02-26T12:01:39;11.60;99.90
15749;DHT22;7976;52.526;13.326;2024-02-26T12:04:07;11.60;99.90
15749;DHT22;7976;52.526;13.326;2024-02-26T12:06:50;11.70;99.90
15749;DHT22;7976;52.526;13.326;2024-02-26T12:09:31;11.80;99.90
15749;DHT22;7976;52.526;13.326;2024-02-26T12:12:01;11.70;99.90
15749;DHT22;7976;52.526;13.326;2024-02-26T12:14:29;11.80;99.90
15749;DHT22;7976;52.526;13.326;2024-02-26T12:16:56;11.80;99.90
15749;DHT22;7976;52.526;13.326;2024-02-26T12:19:23;11.80;99.90
15749;DHT22;7976;52.526;13.326;2024-02-26T12:21:52;11.80;99.90
15749;DHT22;7976;52.526;13.326;2024-02-26T12:24:20;11.80;99.90
15749;DHT22;7976;52.526;13.326;2024-02-26T12:26:48;11.90;99.90
15749;DHT22;7976;52.526;13.326;2024-02-26T12:29:16;11.90;99.90
15749;DHT22;7976;52.526;13.326;2024-02-26T12:31:43;11.90;99.90
15749;DHT22;7976;52.526;13.326;2024-02-26T12:34:10;12.00;99.90
15749;DHT22;7976;52.526;13.326;2024-02-26T12:36:37;12.10;99.90
15749;DHT22;7976;52.526;13.326;2024-02-26T12:39:06;12.10;99.90
15749;DHT22;7976;52.526;13.326;2024-02-26T12:41:35;12.20;99.90
15749;DHT22;7976;52.526;13.326;2024-02-26T12:44:02;12.20;99.90
15749;DHT22;7976;52.526;13.326;2024-02-26T12:46:31;12.20;99.90
15749;DHT22;7976;52.526;13.326;2024-02-26T12:48:58;12.20;99.90
15749;DHT22;7976;52.526;13.326;2024-02-26T12:51:26;12.10;99.90
15749;DHT22;7976;52.526;13.326;2024-02-26T12:53:55;12.10;99.90
15749;DHT22;7976;52.526;13.326;2024-02-26T12:56:23;12.10;99.90
15749;DHT22;7976;52.526;13.326;2024-02-26T12:58:52;12.20;99.90
15749;DHT22;7976;52.526;13.326;2024-02-26T13:01:23;12.20;99.90
15749;DHT22;7976;52.526;13.326;2024-02-26T13:03:53;12.20;99.90
15749;DHT22;7976;52.526;13.326;2024-02-26T13:06:21;12.20;99.90
15749;DHT22;7976;52.526;13.326;2024-02-26T13:08:48;12.20;99.90
15749;DHT22;7976;52.526;13.326;2024-02-26T13:11:15;12.30;99.90
15749;DHT22;7976;52.526;13.326;2024-02-26T13:13:42;12.30;99.90
15749;DHT22;7976;52.526;13.326;2024-02-26T13:16:13;12.20;99.90
15749;DHT22;7976;52.526;13.326;2024-02-26T13:18:45;12.20;99.90
15749;DHT22;7976;52.526;13.326;2024-02-26T13:21:18;12.20;99.90
15749;DHT22;7976;52.526;13.326;2024-02-26T13:23:49;12.30;99.90
15749;DHT22;7976;52.526;13.326;2024-02-26T13:26:23;12.30;99.90
15749;DHT22;7976;52.526;13.326;2024-02-26T13:29:01;12.40;99.90
15749;DHT22;7976;52.526;13.326;2024-02-26T13:31:30;12.40;99.90
15749;DHT22;7976;52.526;13.326;2024-02-26T13:33:58;12.40;99.90
15749;DHT22;7976;52.526;13.326;2024-02-26T13:36:30;12.40;99.90
15749;DHT22;7976;52.526;13.326;2024-02-26T13:39:01;12.40;99.90
15749;DHT22;7976;52.526;13.326;2024-02-26T13:41:30;12.50;99.90
15749;DHT22;7976;52.526;13.326;2024-02-26T13:43:59;12.50;99.90
15749;DHT22;7976;52.526;13.326;2024-02-26T13:46:30;12.40;99.90
15749;DHT22;7976;52.526;13.326;2024-02-26T13:48:58;12.40;99.90
15749;DHT22;7976;52.526;13.326;2024-02-26T13:51:28;12.30;99.90
15749;DHT22;7976;52.526;13.326;2024-02-26T13:54:01;12.30;99.90
15749;DHT22;7976;52.526;13.326;2024-02-26T13:56:29;12.30;99.90
15749;DHT22;7976;52.526;13.326;2024-02-26T13:58:58;12.30;99.90
15749;DHT22;7976;52.526;13.326;2024-02-26T14:01:27;12.30;99.90
15749;DHT22;7976;52.526;13.326;2024-02-26T14:03:56;12.20;99.90
15749;DHT22;7976;52.526;13.326;2024-02-26T14:06:29;12.30;99.90
15749;DHT22;7976;52.526;13.326;2024-02-26T14:08:58;12.20;99.90
15749;DHT22;7976;52.526;13.326;2024-02-26T14:11:27;12.20;99.90
15749;DHT22;7976;52.526;13.326;2024-02-26T14:13:58;12.20;99.90
15749;DHT22;7976;52.526;13.326;2024-02-26T14:16:29;12.20;99.90
15749;DHT22;7976;52.526;13.326;2024-02-26T14:18:59;12.20;99.90
15749;DHT22;7976;52.526;13.326;2024-02-26T14:21:30;12.10;99.90
15749;DHT22;7976;52.526;13.326;2024-02-26T14:24:05;12.10;99.90
15749;DHT22;7976;52.526;13.326;2024-02-26T14:26:34;12.10;99.90
15749;DHT22;7976;52.526;13.326;2024-02-26T14:29:05;12.20;99.90
15749;DHT22;7976;52.526;13.326;2024-02-26T14:31:34;12.10;99.90
15749;DHT22;7976;52.526;13.326;2024-02-26T14:34:05;12.00;99.90
15749;DHT22;7976;52.526;13.326;2024-02-26T14:36:37;12.00;99.90
15749;DHT22;7976;52.526;13.326;2024-02-26T14:39:05;12.00;99.90
15749;DHT22;7976;52.526;13.326;2024-02-26T14:41:38;12.00;99.90
15749;DHT22;7976;52.526;13.326;2024-02-26T14:44:14;11.90;99.90
15749;DHT22;7976;52.526;13.326;2024-02-26T14:46:46;11.90;99.90
15749;DHT22;7976;52.526;13.326;2024-02-26T14:49:14;11.80;99.90
15749;DHT22;7976;52.526;13.326;2024-02-26T14:51:47;11.80;99.90
15749;DHT22;7976;52.526;13.326;2024-02-26T14:54:15;11.80;99.90
15749;DHT22;7976;52.526;13.326;2024-02-26T14:56:43;11.80;99.90
15749;DHT22;7976;52.526;13.326;2024-02-26T14:59:17;11.80;99.90
15749;DHT22;7976;52.526;13.326;2024-02-26T15:01:45;11.70;99.90
15749;DHT22;7976;52.526;13.326;2024-02-26T15:04:16;11.70;99.90
15749;DHT22;7976;52.526;13.326;2024-02-26T15:06:48;11.70;99.90
15749;DHT22;7976;52.526;13.326;2024-02-26T15:09:16;11.60;99.90
15749;DHT22;7976;52.526;13.326;2024-02-26T15:11:44;11.60;99.90
15749;DHT22;7976;52.526;13.326;2024-02-26T15:14:15;11.60;99.90
15749;DHT22;7976;52.526;13.326;2024-02-26T15:16:43;11.60;99.90
15749;DHT22;7976;52.526;13.326;2024-02-26T15:19:11;11.60;99.90
15749;DHT22;7976;52.526;13.326;2024-02-26T15:21:43;11.60;99.90
15749;DHT22;7976;52.526;13.326;2024-02-26T15:24:12;11.50;99.90
15749;DHT22;7976;52.526;13.326;2024-02-26T15:26:43;11.50;99.90
15749;DHT22;7976;52.526;13.326;2024-02-26T15:29:12;11.50;99.90
15749;DHT22;7976;52.526;13.326;2024-02-26T15:31:41;11.40;99.90
15749;DHT22;7976;52.526;13.326;2024-02-26T15:34:12;11.50;99.90
15749;DHT22;7976;52.526;13.326;2024-02-26T15:36:40;11.40;99.90
15749;DHT22;7976;52.526;13.326;2024-02-26T15:39:08;11.40;99.90
15749;DHT22;7976;52.526;13.326;2024-02-26T15:41:38;11.40;99.90
15749;DHT22;7976;52.526;13.326;2024-02-26T15:44:09;11.30;99.90
15749;DHT22;7976;52.526;13.326;2024-02-26T15:46:39;11.30;99.90